createdAt,value
2018-05-11T00:00:33.634Z,0.00
2018-05-11T00:01:33.745Z,0.00
2018-05-11T00:02:33.847Z,0.00
2018-05-11T00:03:33.985Z,0.00
2018-05-11T00:04:34.077Z,0.00
2018-05-11T00:05:34.170Z,0.00
2018-05-11T00:06:34.273Z,0.00
2018-05-11T00:07:34.362Z,0.00
2018-05-11T00:08:34.463Z,0.00
2018-05-11T00:09:34.621Z,0.00
2018-05-11T00:10:34.731Z,0.00
2018-05-11T00:11:34.941Z,0.00
2018-05-11T00:12:35.099Z,0.00
2018-05-11T00:13:35.196Z,0.00
2018-05-11T00:14:35.177Z,0.00
2018-05-11T00:15:35.274Z,0.00
2018-05-11T00:16:35.368Z,0.00
2018-05-11T00:17:35.468Z,0.00
2018-05-11T00:18:35.558Z,0.00
2018-05-11T00:19:35.658Z,0.00
2018-05-11T00:20:35.780Z,0.00
2018-05-11T00:21:35.879Z,0.00
2018-05-11T00:22:36.067Z,0.00
2018-05-11T00:23:36.113Z,0.00
2018-05-11T00:24:36.362Z,0.00
2018-05-11T00:25:36.345Z,0.00
2018-05-11T00:26:36.448Z,0.00
2018-05-11T00:27:36.588Z,0.00
2018-05-11T00:28:36.716Z,0.00
2018-05-11T00:29:36.787Z,0.00
2018-05-11T00:30:36.915Z,0.00
2018-05-11T00:31:37.009Z,0.00
2018-05-11T00:32:37.099Z,0.00
2018-05-11T00:33:37.182Z,0.00
2018-05-11T00:34:37.344Z,0.00
2018-05-11T00:35:37.446Z,0.00
2018-05-11T00:36:37.597Z,0.00
2018-05-11T00:37:37.763Z,0.00
2018-05-11T00:38:37.844Z,0.00
2018-05-11T00:39:37.982Z,0.00
2018-05-11T00:40:38.104Z,0.00
2018-05-11T00:41:38.199Z,0.00
2018-05-11T00:42:38.299Z,0.00
2018-05-11T00:43:38.443Z,0.00
2018-05-11T00:44:38.555Z,0.00
2018-05-11T00:45:38.646Z,0.00
2018-05-11T00:46:38.746Z,0.00
2018-05-11T00:47:38.891Z,0.00
2018-05-11T00:48:38.978Z,0.00
2018-05-11T00:49:39.071Z,0.00
2018-05-11T00:50:39.167Z,0.00
2018-05-11T00:51:39.277Z,0.00
2018-05-11T00:52:39.398Z,0.00
2018-05-11T00:53:39.484Z,4.00
2018-05-11T00:54:39.615Z,0.00
2018-05-11T00:55:39.735Z,0.00
2018-05-11T00:56:39.818Z,0.00
2018-05-11T00:57:39.908Z,0.00
2018-05-11T00:58:40.016Z,0.00
2018-05-11T00:59:40.117Z,0.00
2018-05-11T01:00:40.357Z,0.00
2018-05-11T01:01:40.379Z,0.00
2018-05-11T01:02:40.483Z,0.00
2018-05-11T01:03:40.596Z,0.00
2018-05-11T01:04:40.693Z,0.00
2018-05-11T01:05:40.784Z,0.00
2018-05-11T01:06:40.870Z,0.00
2018-05-11T01:07:41.040Z,0.00
2018-05-11T01:08:41.138Z,0.00
2018-05-11T01:09:41.278Z,0.00
2018-05-11T01:10:41.335Z,0.00
2018-05-11T01:11:41.515Z,0.00
2018-05-11T01:12:41.487Z,0.00
2018-05-11T01:13:41.582Z,0.00
2018-05-11T01:14:41.693Z,0.00
2018-05-11T01:15:41.770Z,0.00
2018-05-11T01:16:41.865Z,0.00
2018-05-11T01:17:41.955Z,0.00
2018-05-11T01:18:42.053Z,0.00
2018-05-11T01:19:42.191Z,0.00
2018-05-11T01:20:42.304Z,0.00
2018-05-11T01:21:42.465Z,0.00
2018-05-11T01:22:42.439Z,0.00
2018-05-11T01:23:42.532Z,0.00
2018-05-11T01:24:42.652Z,0.00
2018-05-11T01:25:42.786Z,0.00
2018-05-11T01:26:42.877Z,0.00
2018-05-11T01:27:43.045Z,0.00
2018-05-11T01:28:43.130Z,0.00
2018-05-11T01:29:43.133Z,0.00
2018-05-11T01:30:43.230Z,0.00
2018-05-11T01:31:43.359Z,0.00
2018-05-11T01:32:43.459Z,0.00
2018-05-11T01:33:43.569Z,0.00
2018-05-11T01:34:43.866Z,0.00
2018-05-11T01:35:43.764Z,0.00
2018-05-11T01:36:43.878Z,0.00
2018-05-11T01:37:43.983Z,0.00
2018-05-11T01:38:44.080Z,0.00
2018-05-11T01:39:44.227Z,0.00
2018-05-11T01:40:44.273Z,0.00
2018-05-11T01:41:44.381Z,0.00
2018-05-11T01:42:44.477Z,0.00
2018-05-11T01:43:44.577Z,0.00
2018-05-11T01:44:44.679Z,0.00
2018-05-11T01:45:44.771Z,0.00
2018-05-11T01:46:44.870Z,0.00
2018-05-11T01:47:44.974Z,0.00
2018-05-11T01:48:45.137Z,0.00
2018-05-11T01:49:45.163Z,0.00
2018-05-11T01:50:45.262Z,0.00
2018-05-11T01:51:45.360Z,0.00
2018-05-11T01:52:45.460Z,0.00
2018-05-11T01:53:45.554Z,0.00
2018-05-11T01:54:45.653Z,0.00
2018-05-11T01:55:45.738Z,0.00
2018-05-11T01:56:45.841Z,0.00
2018-05-11T01:57:45.944Z,0.00
2018-05-11T01:58:46.039Z,0.00
2018-05-11T01:59:46.137Z,0.00
2018-05-11T02:00:46.237Z,0.00
2018-05-11T02:01:46.334Z,0.00
2018-05-11T02:02:46.432Z,0.00
2018-05-11T02:03:46.526Z,0.00
2018-05-11T02:04:46.624Z,0.00
2018-05-11T02:05:46.723Z,0.00
2018-05-11T02:06:46.823Z,0.00
2018-05-11T02:07:46.922Z,0.00
2018-05-11T02:08:47.023Z,0.00
2018-05-11T02:09:47.121Z,0.00
2018-05-11T02:10:47.222Z,0.00
2018-05-11T02:11:47.321Z,0.00
2018-05-11T02:12:47.418Z,0.00
2018-05-11T02:13:47.518Z,0.00
2018-05-11T02:14:47.615Z,0.00
2018-05-11T02:15:47.731Z,0.00
2018-05-11T02:16:47.831Z,0.00
2018-05-11T02:17:47.925Z,0.00
2018-05-11T02:18:48.023Z,0.00
2018-05-11T02:19:48.121Z,0.00
2018-05-11T02:20:48.219Z,0.00
2018-05-11T02:21:48.317Z,0.00
2018-05-11T02:22:48.415Z,0.00
2018-05-11T02:23:48.517Z,0.00
2018-05-11T02:24:48.614Z,0.00
2018-05-11T02:25:48.724Z,0.00
2018-05-11T02:26:48.808Z,0.00
2018-05-11T02:27:48.907Z,0.00
2018-05-11T02:28:49.004Z,0.00
2018-05-11T02:29:49.095Z,0.00
2018-05-11T02:30:49.187Z,0.00
2018-05-11T02:31:49.287Z,0.00
2018-05-11T02:32:49.382Z,0.00
2018-05-11T02:33:49.484Z,0.00
2018-05-11T02:34:49.579Z,0.00
2018-05-11T02:35:49.674Z,0.00
2018-05-11T02:36:49.770Z,0.00
2018-05-11T02:37:49.869Z,0.00
2018-05-11T02:38:49.970Z,0.00
2018-05-11T02:39:50.064Z,0.00
2018-05-11T02:40:50.160Z,0.00
2018-05-11T02:41:50.257Z,0.00
2018-05-11T02:42:50.364Z,0.00
2018-05-11T02:43:50.463Z,0.00
2018-05-11T02:44:50.561Z,0.00
2018-05-11T02:45:50.660Z,0.00
2018-05-11T02:46:50.756Z,4.00
2018-05-11T02:47:50.855Z,0.00
2018-05-11T02:48:50.952Z,0.00
2018-05-11T02:49:51.052Z,0.00
2018-05-11T02:50:51.149Z,0.00
2018-05-11T02:51:51.250Z,0.00
2018-05-11T02:52:51.348Z,0.00
2018-05-11T02:53:51.441Z,0.00
2018-05-11T02:54:51.537Z,0.00
2018-05-11T02:55:51.634Z,0.00
2018-05-11T02:56:51.727Z,0.00
2018-05-11T02:57:51.822Z,0.00
2018-05-11T02:58:51.922Z,0.00
2018-05-11T02:59:52.018Z,0.00
2018-05-11T03:00:52.119Z,0.00
2018-05-11T03:01:52.215Z,0.00
2018-05-11T03:02:52.313Z,0.00
2018-05-11T03:03:52.410Z,0.00
2018-05-11T03:04:52.508Z,0.00
2018-05-11T03:05:52.603Z,0.00
2018-05-11T03:06:52.700Z,4.00
2018-05-11T03:07:52.798Z,4.00
2018-05-11T03:08:52.896Z,4.00
2018-05-11T03:09:52.991Z,4.00
2018-05-11T03:10:53.092Z,4.00
2018-05-11T03:11:53.192Z,0.00
2018-05-11T03:12:53.287Z,4.00
2018-05-11T03:13:53.381Z,4.00
2018-05-11T03:14:53.483Z,8.00
2018-05-11T03:15:53.580Z,4.00
2018-05-11T03:16:53.669Z,4.00
2018-05-11T03:17:53.765Z,8.00
2018-05-11T03:18:53.862Z,8.00
2018-05-11T03:19:53.961Z,12.00
2018-05-11T03:20:54.057Z,12.00
2018-05-11T03:21:54.157Z,12.00
2018-05-11T03:22:54.258Z,12.00
2018-05-11T03:23:54.358Z,12.00
2018-05-11T03:24:54.454Z,20.00
2018-05-11T03:25:54.554Z,20.00
2018-05-11T03:26:54.650Z,20.00
2018-05-11T03:27:54.958Z,28.00
2018-05-11T03:28:54.804Z,32.00
2018-05-11T03:29:54.898Z,32.00
2018-05-11T03:30:54.988Z,44.00
2018-05-11T03:31:55.077Z,44.00
2018-05-11T03:32:55.177Z,48.00
2018-05-11T03:33:55.274Z,52.00
2018-05-11T03:34:55.374Z,56.00
2018-05-11T03:35:55.483Z,60.00
2018-05-11T03:36:55.569Z,64.00
2018-05-11T03:37:55.668Z,76.00
2018-05-11T03:38:55.763Z,80.00
2018-05-11T03:39:55.860Z,88.00
2018-05-11T03:40:55.959Z,96.00
2018-05-11T03:41:56.058Z,108.00
2018-05-11T03:42:56.157Z,116.00
2018-05-11T03:43:56.261Z,128.00
2018-05-11T03:44:56.282Z,136.00
2018-05-11T03:45:56.370Z,144.00
2018-05-11T03:46:56.501Z,152.00
2018-05-11T03:47:56.590Z,164.00
2018-05-11T03:48:56.688Z,180.00
2018-05-11T03:49:56.793Z,192.00
2018-05-11T03:50:56.890Z,204.00
2018-05-11T03:51:56.988Z,216.00
2018-05-11T03:52:57.107Z,232.00
2018-05-11T03:53:57.187Z,248.00
2018-05-11T03:54:57.454Z,268.00
2018-05-11T03:55:57.430Z,284.00
2018-05-11T03:56:57.643Z,308.00
2018-05-11T03:57:57.600Z,320.00
2018-05-11T03:58:57.720Z,328.00
2018-05-11T03:59:57.929Z,336.00
2018-05-11T04:00:57.995Z,368.00
2018-05-11T04:01:58.111Z,388.00
2018-05-11T04:02:58.208Z,396.00
2018-05-11T04:03:58.390Z,396.00
2018-05-11T04:04:58.455Z,388.00
2018-05-11T04:05:58.462Z,384.00
2018-05-11T04:06:58.646Z,384.00
2018-05-11T04:07:58.667Z,396.00
2018-05-11T04:08:58.787Z,408.00
2018-05-11T04:09:58.851Z,416.00
2018-05-11T04:10:58.967Z,444.00
2018-05-11T04:11:59.070Z,476.00
2018-05-11T04:12:59.181Z,508.00
2018-05-11T04:13:59.228Z,544.00
2018-05-11T04:14:59.314Z,560.00
2018-05-11T04:15:59.403Z,572.00
2018-05-11T04:16:59.539Z,568.00
2018-05-11T04:17:59.747Z,564.00
2018-05-11T04:18:59.792Z,568.00
2018-05-11T04:19:59.929Z,576.00
2018-05-11T04:21:00.072Z,576.00
2018-05-11T04:22:00.170Z,584.00
2018-05-11T04:23:00.269Z,612.00
2018-05-11T04:24:00.461Z,660.00
2018-05-11T04:25:00.445Z,688.00
2018-05-11T04:26:00.537Z,720.00
2018-05-11T04:27:00.662Z,716.00
2018-05-11T04:28:00.755Z,676.00
2018-05-11T04:29:00.856Z,652.00
2018-05-11T04:30:00.955Z,636.00
2018-05-11T04:31:01.113Z,664.00
2018-05-11T04:32:01.169Z,704.00
2018-05-11T04:33:01.198Z,740.00
2018-05-11T04:34:01.296Z,784.00
2018-05-11T04:35:01.438Z,836.00
2018-05-11T04:36:01.491Z,896.00
2018-05-11T04:37:01.491Z,992.00
2018-05-11T04:38:01.799Z,1048.00
2018-05-11T04:39:01.721Z,1172.00
2018-05-11T04:40:01.818Z,1324.00
2018-05-11T04:41:01.917Z,1436.00
2018-05-11T04:42:02.052Z,1500.00
2018-05-11T04:43:02.211Z,1636.00
2018-05-11T04:44:02.299Z,1728.00
2018-05-11T04:45:02.379Z,1828.00
2018-05-11T04:46:02.596Z,1900.00
2018-05-11T04:47:02.588Z,1888.00
2018-05-11T04:48:02.747Z,1880.00
2018-05-11T04:49:02.762Z,1944.00
2018-05-11T04:50:02.958Z,1988.00
2018-05-11T04:51:02.893Z,2088.00
2018-05-11T04:52:03.203Z,2136.00
2018-05-11T04:53:03.078Z,2148.00
2018-05-11T04:54:03.192Z,2168.00
2018-05-11T04:55:03.670Z,2168.00
2018-05-11T04:56:03.474Z,2176.00
2018-05-11T04:57:03.573Z,2200.00
2018-05-11T04:58:03.606Z,2232.00
2018-05-11T04:59:03.822Z,2324.00
2018-05-11T05:00:03.828Z,2392.00
2018-05-11T05:01:03.944Z,2532.00
2018-05-11T05:02:04.091Z,2776.00
2018-05-11T05:03:04.391Z,3016.00
2018-05-11T05:04:04.379Z,3184.00
2018-05-11T05:05:04.441Z,3320.00
2018-05-11T05:06:04.714Z,3448.00
2018-05-11T05:07:04.659Z,3592.00
2018-05-11T05:08:05.086Z,3724.00
2018-05-11T05:09:04.938Z,3820.00
2018-05-11T05:10:04.915Z,3828.00
2018-05-11T05:11:05.373Z,3776.00
2018-05-11T05:12:05.092Z,3636.00
2018-05-11T05:13:05.458Z,3440.00
2018-05-11T05:14:05.520Z,3256.00
2018-05-11T05:15:05.571Z,3064.00
2018-05-11T05:16:05.595Z,2820.00
2018-05-11T05:17:05.717Z,2760.00
2018-05-11T05:18:05.940Z,2824.00
2018-05-11T05:19:06.007Z,2884.00
2018-05-11T05:20:06.086Z,2796.00
2018-05-11T05:21:06.313Z,2736.00
2018-05-11T05:22:06.261Z,2632.00
2018-05-11T05:23:06.549Z,2412.00
2018-05-11T05:24:06.621Z,2320.00
2018-05-11T05:25:06.787Z,2220.00
2018-05-11T05:26:06.729Z,2220.00
2018-05-11T05:27:07.200Z,2280.00
2018-05-11T05:28:06.851Z,2388.00
2018-05-11T05:29:06.848Z,2432.00
2018-05-11T05:30:06.934Z,2652.00
2018-05-11T05:31:07.017Z,2980.00
2018-05-11T05:32:07.362Z,3100.00
2018-05-11T05:33:07.758Z,3212.00
2018-05-11T05:34:07.997Z,3572.00
2018-05-11T05:35:07.618Z,3728.00
2018-05-11T05:36:07.880Z,3756.00
2018-05-11T05:37:08.139Z,3752.00
2018-05-11T05:38:08.447Z,3604.00
2018-05-11T05:39:08.135Z,3372.00
2018-05-11T05:40:08.164Z,3288.00
2018-05-11T05:41:08.338Z,3568.00
2018-05-11T05:42:08.336Z,3920.00
2018-05-11T05:43:08.441Z,4120.00
2018-05-11T05:44:08.492Z,4524.00
2018-05-11T05:45:08.639Z,4888.00
2018-05-11T05:46:08.826Z,4760.00
2018-05-11T05:47:08.840Z,5004.00
2018-05-11T05:48:08.932Z,5324.00
2018-05-11T05:49:09.036Z,5040.00
2018-05-11T05:50:09.172Z,5012.00
2018-05-11T05:51:09.407Z,4532.00
2018-05-11T05:52:09.484Z,4200.00
2018-05-11T05:53:09.493Z,4036.00
2018-05-11T05:54:09.540Z,3964.00
2018-05-11T05:55:09.731Z,3768.00
2018-05-11T05:56:09.718Z,3828.00
2018-05-11T05:57:09.826Z,3988.00
2018-05-11T05:58:10.107Z,4356.00
2018-05-11T05:59:10.020Z,4608.00
2018-05-11T06:00:10.160Z,5100.00
2018-05-11T06:01:10.261Z,5644.00
2018-05-11T06:02:10.383Z,5864.00
2018-05-11T06:03:10.434Z,6376.00
2018-05-11T06:04:10.517Z,6476.00
2018-05-11T06:05:10.640Z,6568.00
2018-05-11T06:06:10.752Z,5992.00
2018-05-11T06:07:10.848Z,5712.00
2018-05-11T06:08:10.972Z,5488.00
2018-05-11T06:09:11.097Z,5016.00
2018-05-11T06:10:11.272Z,4800.00
2018-05-11T06:11:11.309Z,5084.00
2018-05-11T06:12:11.270Z,5680.00
2018-05-11T06:13:11.434Z,6820.00
2018-05-11T06:14:11.403Z,19616.00
2018-05-11T06:15:11.500Z,21984.00
2018-05-11T06:16:11.883Z,21184.00
2018-05-11T06:17:11.726Z,19392.00
2018-05-11T06:18:11.729Z,18144.00
2018-05-11T06:19:11.819Z,18240.00
2018-05-11T06:20:11.970Z,17664.00
2018-05-11T06:21:12.000Z,14720.00
2018-05-11T06:22:12.119Z,7016.00
2018-05-11T06:23:12.532Z,7540.00
2018-05-11T06:24:12.356Z,7632.00
2018-05-11T06:25:12.509Z,8772.00
2018-05-11T06:26:12.602Z,8956.00
2018-05-11T06:27:12.703Z,7704.00
2018-05-11T06:28:12.754Z,6564.00
2018-05-11T06:29:12.893Z,6836.00
2018-05-11T06:30:13.077Z,7256.00
2018-05-11T06:31:13.057Z,7008.00
2018-05-11T06:32:13.170Z,6704.00
2018-05-11T06:33:13.270Z,6676.00
2018-05-11T06:34:13.370Z,5888.00
2018-05-11T06:35:13.484Z,5444.00
2018-05-11T06:36:13.591Z,5052.00
2018-05-11T06:37:13.688Z,4788.00
2018-05-11T06:38:13.783Z,4756.00
2018-05-11T06:39:13.894Z,5056.00
2018-05-11T06:40:14.006Z,4508.00
2018-05-11T06:41:14.121Z,4372.00
2018-05-11T06:42:14.227Z,4336.00
2018-05-11T06:43:14.330Z,4216.00
2018-05-11T06:44:14.499Z,4220.00
2018-05-11T06:45:14.466Z,4420.00
2018-05-11T06:46:14.672Z,4584.00
2018-05-11T06:47:14.822Z,4772.00
2018-05-11T06:48:14.975Z,4872.00
2018-05-11T06:49:14.825Z,5224.00
2018-05-11T06:50:15.400Z,5344.00
2018-05-11T06:51:15.553Z,5184.00
2018-05-11T06:52:15.228Z,5000.00
2018-05-11T06:53:15.225Z,4892.00
2018-05-11T06:54:15.325Z,5412.00
2018-05-11T06:55:15.426Z,4744.00
2018-05-11T06:56:15.532Z,4516.00
2018-05-11T06:57:15.631Z,4388.00
2018-05-11T06:58:15.735Z,4360.00
2018-05-11T06:59:15.835Z,4364.00
2018-05-11T07:00:15.936Z,4384.00
2018-05-11T07:01:16.026Z,4412.00
2018-05-11T07:02:16.123Z,4152.00
2018-05-11T07:03:16.226Z,3888.00
2018-05-11T07:04:17.108Z,3788.00
2018-05-11T07:05:16.442Z,3848.00
2018-05-11T07:06:16.738Z,3932.00
2018-05-11T07:07:16.678Z,4104.00
2018-05-11T07:08:17.697Z,4244.00
2018-05-11T07:09:16.849Z,4432.00
2018-05-11T07:10:17.146Z,4668.00
2018-05-11T07:11:16.999Z,4856.00
2018-05-11T07:12:17.144Z,5612.00
2018-05-11T07:13:17.218Z,5684.00
2018-05-11T07:14:17.344Z,6400.00
2018-05-11T07:15:17.516Z,6780.00
2018-05-11T07:16:17.887Z,6756.00
2018-05-11T07:17:18.151Z,6308.00
2018-05-11T07:18:17.787Z,6328.00
2018-05-11T07:19:17.815Z,6564.00
2018-05-11T07:20:19.055Z,7616.00
2018-05-11T07:21:19.508Z,7724.00
2018-05-11T07:22:18.689Z,7704.00
2018-05-11T07:23:18.225Z,7528.00
2018-05-11T07:24:18.339Z,7440.00
2018-05-11T07:25:18.440Z,7404.00
2018-05-11T07:26:19.974Z,7420.00
2018-05-11T07:27:18.999Z,7512.00
2018-05-11T07:28:18.844Z,7320.00
2018-05-11T07:29:18.941Z,7132.00
2018-05-11T07:30:19.623Z,6720.00
2018-05-11T07:31:20.245Z,7064.00
2018-05-11T07:32:19.245Z,6592.00
2018-05-11T07:33:19.351Z,7036.00
2018-05-11T07:34:19.506Z,7240.00
2018-05-11T07:35:19.602Z,7152.00
2018-05-11T07:36:19.703Z,7072.00
2018-05-11T07:37:19.805Z,7024.00
2018-05-11T07:38:19.906Z,5828.00
2018-05-11T07:39:20.008Z,5656.00
2018-05-11T07:40:20.142Z,5824.00
2018-05-11T07:41:20.246Z,6116.00
2018-05-11T07:42:20.346Z,6176.00
2018-05-11T07:43:20.529Z,6436.00
2018-05-11T07:44:20.536Z,7460.00
2018-05-11T07:45:20.636Z,7896.00
2018-05-11T07:46:20.738Z,6716.00
2018-05-11T07:47:20.838Z,6692.00
2018-05-11T07:48:20.941Z,6460.00
2018-05-11T07:49:21.062Z,6380.00
2018-05-11T07:50:21.162Z,6480.00
2018-05-11T07:51:21.263Z,6676.00
2018-05-11T07:52:21.366Z,6788.00
2018-05-11T07:53:21.468Z,6964.00
2018-05-11T07:54:21.573Z,6952.00
2018-05-11T07:55:21.676Z,6840.00
2018-05-11T07:56:21.778Z,6772.00
2018-05-11T07:57:21.877Z,6812.00
2018-05-11T07:58:21.977Z,6920.00
2018-05-11T07:59:22.085Z,7016.00
2018-05-11T08:00:22.190Z,7240.00
2018-05-11T08:01:22.292Z,7464.00
2018-05-11T08:02:22.392Z,7556.00
2018-05-11T08:03:22.495Z,7472.00
2018-05-11T08:04:22.596Z,7960.00
2018-05-11T08:05:22.697Z,7136.00
2018-05-11T08:06:22.800Z,7016.00
2018-05-11T08:07:22.907Z,6920.00
2018-05-11T08:08:23.009Z,6876.00
2018-05-11T08:09:23.113Z,6924.00
2018-05-11T08:10:23.212Z,6972.00
2018-05-11T08:11:23.312Z,7040.00
2018-05-11T08:12:23.427Z,7132.00
2018-05-11T08:13:23.530Z,7204.00
2018-05-11T08:14:23.739Z,7332.00
2018-05-11T08:15:23.731Z,7460.00
2018-05-11T08:16:23.827Z,7520.00
2018-05-11T08:17:23.926Z,7628.00
2018-05-11T08:18:24.028Z,7744.00
2018-05-11T08:19:24.129Z,7816.00
2018-05-11T08:20:24.235Z,7856.00
2018-05-11T08:21:24.340Z,7904.00
2018-05-11T08:22:24.439Z,7960.00
2018-05-11T08:23:24.543Z,7908.00
2018-05-11T08:24:24.640Z,8184.00
2018-05-11T08:25:24.736Z,8288.00
2018-05-11T08:26:24.835Z,7552.00
2018-05-11T08:27:24.938Z,7604.00
2018-05-11T08:28:25.040Z,6952.00
2018-05-11T08:29:25.140Z,6880.00
2018-05-11T08:30:25.239Z,7132.00
2018-05-11T08:31:25.339Z,6800.00
2018-05-11T08:32:25.441Z,6700.00
2018-05-11T08:33:25.545Z,6504.00
2018-05-11T08:34:25.643Z,6356.00
2018-05-11T08:35:25.743Z,6312.00
2018-05-11T08:36:25.843Z,6456.00
2018-05-11T08:37:25.946Z,6708.00
2018-05-11T08:38:26.046Z,6892.00
2018-05-11T08:39:26.150Z,6964.00
2018-05-11T08:40:26.251Z,7056.00
2018-05-11T08:41:26.350Z,7120.00
2018-05-11T08:42:26.449Z,7212.00
2018-05-11T08:43:26.554Z,7204.00
2018-05-11T08:44:26.654Z,7092.00
2018-05-11T08:45:26.757Z,7188.00
2018-05-11T08:46:26.937Z,7364.00
2018-05-11T08:47:26.965Z,7324.00
2018-05-11T08:48:27.066Z,7616.00
2018-05-11T08:49:27.170Z,8816.00
2018-05-11T08:50:27.273Z,8812.00
2018-05-11T08:51:27.378Z,8700.00
2018-05-11T08:52:27.475Z,8572.00
2018-05-11T08:53:27.578Z,8532.00
2018-05-11T08:54:27.678Z,8432.00
2018-05-11T08:55:27.781Z,8524.00
2018-05-11T08:56:27.885Z,8628.00
2018-05-11T08:57:28.050Z,8808.00
2018-05-11T08:58:28.148Z,8816.00
2018-05-11T08:59:28.250Z,8676.00
2018-05-11T09:00:28.355Z,8396.00
2018-05-11T09:01:28.454Z,8144.00
2018-05-11T09:02:28.557Z,8064.00
2018-05-11T09:03:28.661Z,8076.00
2018-05-11T09:04:28.764Z,8152.00
2018-05-11T09:05:28.880Z,6988.00
2018-05-11T09:06:28.978Z,7024.00
2018-05-11T09:07:29.080Z,8328.00
2018-05-11T09:08:29.187Z,6176.00
2018-05-11T09:09:29.288Z,6240.00
2018-05-11T09:10:29.391Z,5616.00
2018-05-11T09:11:29.516Z,5268.00
2018-05-11T09:12:29.617Z,5092.00
2018-05-11T09:13:29.718Z,5076.00
2018-05-11T09:14:29.821Z,5032.00
2018-05-11T09:15:29.922Z,5064.00
2018-05-11T09:16:30.025Z,5308.00
2018-05-11T09:17:30.128Z,7468.00
2018-05-11T09:18:30.238Z,7536.00
2018-05-11T09:19:30.338Z,7628.00
2018-05-11T09:20:30.438Z,7748.00
2018-05-11T09:21:30.621Z,7992.00
2018-05-11T09:22:30.638Z,8212.00
2018-05-11T09:23:30.729Z,8236.00
2018-05-11T09:24:30.833Z,8096.00
2018-05-11T09:25:30.935Z,8296.00
2018-05-11T09:26:31.036Z,8468.00
2018-05-11T09:27:31.196Z,8576.00
2018-05-11T09:28:31.303Z,8580.00
2018-05-11T09:29:31.408Z,8388.00
2018-05-11T09:30:31.510Z,8152.00
2018-05-11T09:31:31.612Z,8160.00
2018-05-11T09:32:31.788Z,8232.00
2018-05-11T09:33:31.794Z,8432.00
2018-05-11T09:34:31.893Z,8364.00
2018-05-11T09:35:31.995Z,8276.00
2018-05-11T09:36:33.186Z,8068.00
2018-05-11T09:37:32.203Z,7896.00
2018-05-11T09:38:32.307Z,7684.00
2018-05-11T09:39:32.437Z,7596.00
2018-05-11T09:40:32.522Z,7552.00
2018-05-11T09:41:32.713Z,7440.00
2018-05-11T09:42:32.783Z,7340.00
2018-05-11T09:43:32.857Z,7460.00
2018-05-11T09:44:33.028Z,7596.00
2018-05-11T09:45:33.316Z,7572.00
2018-05-11T09:46:33.192Z,7444.00
2018-05-11T09:47:33.227Z,7244.00
2018-05-11T09:48:33.714Z,7336.00
2018-05-11T09:49:33.647Z,7404.00
2018-05-11T09:50:33.909Z,7604.00
2018-05-11T09:51:33.890Z,7924.00
2018-05-11T09:52:33.760Z,7620.00
2018-05-11T09:53:33.776Z,7696.00
2018-05-11T09:54:34.043Z,7716.00
2018-05-11T09:55:34.257Z,7560.00
2018-05-11T09:56:34.032Z,7432.00
2018-05-11T09:57:34.372Z,7272.00
2018-05-11T09:58:34.405Z,7152.00
2018-05-11T09:59:34.552Z,7100.00
2018-05-11T10:00:34.418Z,6984.00
2018-05-11T10:01:34.599Z,6912.00
2018-05-11T10:02:34.709Z,6932.00
2018-05-11T10:03:34.818Z,7112.00
2018-05-11T10:04:34.863Z,7192.00
2018-05-11T10:05:34.838Z,7200.00
2018-05-11T10:06:35.302Z,7260.00
2018-05-11T10:07:35.152Z,7412.00
2018-05-11T10:08:35.269Z,7512.00
2018-05-11T10:09:35.380Z,7772.00
2018-05-11T10:10:35.458Z,7892.00
2018-05-11T10:11:35.504Z,7868.00
2018-05-11T10:12:35.721Z,7840.00
2018-05-11T10:13:35.828Z,7924.00
2018-05-11T10:14:35.824Z,7884.00
2018-05-11T10:15:36.020Z,7776.00
2018-05-11T10:16:36.043Z,7736.00
2018-05-11T10:17:36.241Z,7592.00
2018-05-11T10:18:36.236Z,7620.00
2018-05-11T10:19:36.727Z,7752.00
2018-05-11T10:20:36.671Z,7796.00
2018-05-11T10:21:36.634Z,7880.00
2018-05-11T10:22:36.704Z,7848.00
2018-05-11T10:23:36.752Z,7832.00
2018-05-11T10:24:36.979Z,7476.00
2018-05-11T10:25:36.994Z,5200.00
2018-05-11T10:26:37.336Z,5052.00
2018-05-11T10:27:37.221Z,4804.00
2018-05-11T10:28:37.499Z,5416.00
2018-05-11T10:29:37.645Z,7412.00
2018-05-11T10:30:37.623Z,7372.00
2018-05-11T10:31:37.729Z,7528.00
2018-05-11T10:32:37.841Z,7372.00
2018-05-11T10:33:37.979Z,7476.00
2018-05-11T10:34:38.068Z,7292.00
2018-05-11T10:35:38.198Z,7200.00
2018-05-11T10:36:38.314Z,7108.00
2018-05-11T10:37:38.787Z,7168.00
2018-05-11T10:38:38.414Z,7324.00
2018-05-11T10:39:38.554Z,7316.00
2018-05-11T10:40:38.706Z,7464.00
2018-05-11T10:41:38.848Z,7556.00
2018-05-11T10:42:38.960Z,7480.00
2018-05-11T10:43:39.090Z,7548.00
2018-05-11T10:44:39.159Z,7796.00
2018-05-11T10:45:39.368Z,7836.00
2018-05-11T10:46:39.380Z,7968.00
2018-05-11T10:47:39.664Z,8036.00
2018-05-11T10:48:39.728Z,8184.00
2018-05-11T10:49:39.770Z,8432.00
2018-05-11T10:50:40.018Z,8860.00
2018-05-11T10:51:40.052Z,8624.00
2018-05-11T10:52:40.152Z,8300.00
2018-05-11T10:53:40.296Z,8200.00
2018-05-11T10:54:40.397Z,8204.00
2018-05-11T10:55:40.546Z,8148.00
2018-05-11T10:56:40.647Z,7980.00
2018-05-11T10:57:40.743Z,7956.00
2018-05-11T10:58:40.889Z,7804.00
2018-05-11T10:59:40.980Z,7632.00
2018-05-11T11:00:41.107Z,7864.00
2018-05-11T11:01:41.324Z,7744.00
2018-05-11T11:02:41.416Z,7992.00
2018-05-11T11:03:41.429Z,8172.00
2018-05-11T11:04:41.517Z,8184.00
2018-05-11T11:05:41.624Z,8204.00
2018-05-11T11:06:41.711Z,8524.00
2018-05-11T11:07:41.837Z,8568.00
2018-05-11T11:08:42.099Z,8176.00
2018-05-11T11:09:42.007Z,8076.00
2018-05-11T11:10:42.123Z,7560.00
2018-05-11T11:11:42.366Z,5512.00
2018-05-11T11:12:42.338Z,5964.00
2018-05-11T11:13:42.470Z,5312.00
2018-05-11T11:14:42.571Z,5288.00
2018-05-11T11:15:42.679Z,5332.00
2018-05-11T11:16:42.779Z,5404.00
2018-05-11T11:17:42.972Z,5480.00
2018-05-11T11:18:43.268Z,5560.00
2018-05-11T11:19:43.202Z,5512.00
2018-05-11T11:20:43.240Z,6096.00
2018-05-11T11:21:43.279Z,7716.00
2018-05-11T11:22:43.545Z,8216.00
2018-05-11T11:23:43.523Z,6632.00
2018-05-11T11:24:43.616Z,5800.00
2018-05-11T11:25:43.754Z,5828.00
2018-05-11T11:26:43.838Z,8068.00
2018-05-11T11:27:43.945Z,5528.00
2018-05-11T11:28:44.046Z,5432.00
2018-05-11T11:29:44.142Z,5532.00
2018-05-11T11:30:44.256Z,5668.00
2018-05-11T11:31:44.347Z,7584.00
2018-05-11T11:32:44.636Z,6052.00
2018-05-11T11:33:44.611Z,6328.00
2018-05-11T11:34:44.754Z,6988.00
2018-05-11T11:35:44.832Z,6792.00
2018-05-11T11:36:44.927Z,6580.00
2018-05-11T11:37:45.050Z,6416.00
2018-05-11T11:38:45.153Z,6464.00
2018-05-11T11:39:45.253Z,6632.00
2018-05-11T11:40:45.448Z,6784.00
2018-05-11T11:41:45.624Z,6740.00
2018-05-11T11:42:45.683Z,6528.00
2018-05-11T11:43:45.788Z,6280.00
2018-05-11T11:44:45.909Z,6080.00
2018-05-11T11:45:46.017Z,6000.00
2018-05-11T11:46:46.130Z,5976.00
2018-05-11T11:47:46.294Z,6024.00
2018-05-11T11:48:46.523Z,8020.00
2018-05-11T11:49:46.376Z,8224.00
2018-05-11T11:50:46.471Z,6692.00
2018-05-11T11:51:46.657Z,5816.00
2018-05-11T11:52:46.638Z,6432.00
2018-05-11T11:53:46.824Z,8428.00
2018-05-11T11:54:46.783Z,8364.00
2018-05-11T11:55:46.874Z,8832.00
2018-05-11T11:56:46.976Z,9240.00
2018-05-11T11:57:47.094Z,9468.00
2018-05-11T11:58:47.191Z,9672.00
2018-05-11T11:59:47.290Z,9796.00
2018-05-11T12:00:47.381Z,9852.00
2018-05-11T12:01:47.539Z,9716.00
2018-05-11T12:02:47.605Z,9944.00
2018-05-11T12:03:47.699Z,9216.00
2018-05-11T12:04:47.802Z,8812.00
2018-05-11T12:05:47.936Z,9304.00
2018-05-11T12:06:48.083Z,9340.00
2018-05-11T12:07:48.178Z,7872.00
2018-05-11T12:08:48.409Z,9988.00
2018-05-11T12:09:48.404Z,9188.00
2018-05-11T12:10:48.509Z,9848.00
2018-05-11T12:11:48.646Z,8800.00
2018-05-11T12:12:48.712Z,7892.00
2018-05-11T12:13:48.815Z,7360.00
2018-05-11T12:14:48.904Z,6616.00
2018-05-11T12:15:49.114Z,7432.00
2018-05-11T12:16:49.071Z,7320.00
2018-05-11T12:17:49.178Z,6964.00
2018-05-11T12:18:49.284Z,6652.00
2018-05-11T12:19:49.389Z,6724.00
2018-05-11T12:20:49.514Z,8204.00
2018-05-11T12:21:49.620Z,6920.00
2018-05-11T12:22:49.725Z,6960.00
2018-05-11T12:23:49.828Z,7608.00
2018-05-11T12:24:49.932Z,9976.00
2018-05-11T12:25:50.063Z,10560.00
2018-05-11T12:26:50.166Z,10456.00
2018-05-11T12:27:50.270Z,10748.00